Time;durP1;ratioP1;P1;durP2;ratioP2;P2;SDS_P1;SDS_P2;PMS_P1;PMS_P2;Temp;Humidity;BMP_temperature;BMP_pressure;BME280_temperature;BME280_humidity;BME280_pressure;Samples;Min_cycle;Max_cycle;Signal;HPM_P1;HPM_P2
2021/04/05 00:01:13;;;;;;;14.85;4.05;;;;;;;18.42;39.79;101976.47;4976054;28;20118;-82
2021/04/05 00:03:39;;;;;;;17.77;4.85;;;;;;;18.68;39.39;101973.56;4976140;28;20031;-83
2021/04/05 00:06:05;;;;;;;15.02;4.75;;;;;;;18.33;39.82;101981.28;4976344;28;20030;-82
2021/04/05 00:08:30;;;;;;;16.95;4.18;;;;;;;18.30;39.64;101980.81;4976242;28;20023;-86
2021/04/05 00:10:58;;;;;;;14.95;3.83;;;;;;;18.01;40.05;101980.81;4974912;28;20482;-85
2021/04/05 00:13:26;;;;;;;12.98;3.65;;;;;;;18.13;39.52;101963.50;4975487;28;20105;-83
2021/04/05 00:15:52;;;;;;;18.77;3.90;;;;;;;17.92;39.70;101955.16;4976018;28;20034;-88
2021/04/05 00:18:19;;;;;;;17.60;5.18;;;;;;;18.14;38.88;101956.84;4974900;28;20046;-83
2021/04/05 00:20:52;;;;;;;23.98;4.72;;;;;;;17.72;39.01;101960.28;4975923;28;20061;-89
2021/04/05 00:23:18;;;;;;;24.55;4.93;;;;;;;17.67;39.11;101952.13;4975561;28;20027;-81
2021/04/05 00:25:44;;;;;;;21.85;4.55;;;;;;;17.44;39.40;101965.38;4991143;28;20086;-88
2021/04/05 00:28:10;;;;;;;16.45;5.38;;;;;;;17.38;38.62;101971.41;4975723;28;20023;-88
2021/04/05 00:30:38;;;;;;;24.92;6.22;;;;;;;17.34;38.37;101976.00;4975499;28;20030;-81
2021/04/05 00:33:04;;;;;;;19.02;5.07;;;;;;;17.11;37.81;101980.91;4975611;28;20035;-87
2021/04/05 00:35:33;;;;;;;20.23;4.30;;;;;;;16.95;37.58;101980.63;4975746;28;20030;-83
2021/04/05 00:38:00;;;;;;;21.60;6.18;;;;;;;16.75;37.07;101975.75;4976013;28;20166;-86
2021/04/05 00:40:37;;;;;;;23.23;5.07;;;;;;;16.40;37.10;101981.22;4974518;28;20030;-82
2021/04/05 00:43:09;;;;;;;18.00;5.75;;;;;;;17.06;36.18;101979.13;4975441;28;20528;-84
2021/04/05 00:45:35;;;;;;;23.42;5.55;;;;;;;17.14;35.87;101975.53;4975282;28;20050;-89
2021/04/05 00:48:02;;;;;;;20.75;5.18;;;;;;;17.36;35.22;101968.19;4975488;28;20058;-83
2021/04/05 00:50:33;;;;;;;19.63;6.85;;;;;;;17.02;35.75;101991.97;4974184;28;20037;-83
2021/04/05 00:53:01;;;;;;;18.52;5.35;;;;;;;16.99;35.33;101984.31;4975220;28;20027;-89
2021/04/05 00:55:27;;;;;;;20.63;4.93;;;;;;;16.70;35.89;101982.25;4975453;28;20038;-85
2021/04/05 00:57:57;;;;;;;18.23;5.55;;;;;;;16.62;35.89;102005.91;4975318;28;20027;-85
2021/04/05 01:00:41;;;;;;;22.83;5.75;;;;;;;16.90;35.24;101994.56;4973603;28;20481;-83
2021/04/05 01:03:08;;;;;;;12.60;4.50;;;;;;;16.68;35.09;101991.94;4974943;28;20117;-84
2021/04/05 01:05:34;;;;;;;21.02;6.25;;;;;;;17.03;34.67;101993.59;4974851;28;20034;-89
2021/04/05 01:08:00;;;;;;;18.90;6.60;;;;;;;17.12;34.76;101988.88;4973770;28;20027;-84
2021/04/05 01:10:26;;;;;;;22.58;6.40;;;;;;;17.30;34.15;101984.13;4973885;28;20500;-82
2021/04/05 01:12:53;;;;;;;16.13;4.90;;;;;;;17.20;34.41;101993.56;4989738;28;20125;-83
2021/04/05 01:15:19;;;;;;;22.08;6.22;;;;;;;17.33;34.08;101997.28;4974704;28;20042;-90
2021/04/05 01:17:47;;;;;;;23.90;6.15;;;;;;;17.40;34.21;102008.66;4974890;28;20034;-85
2021/04/05 01:20:13;;;;;;;24.27;5.97;;;;;;;17.17;34.63;102010.81;4989777;28;20399;-82
2021/04/05 01:22:42;;;;;;;18.65;5.82;;;;;;;17.30;34.36;101997.94;4974864;28;20055;-85
2021/04/05 01:25:10;;;;;;;22.52;6.85;;;;;;;17.42;34.03;101994.50;4973483;28;20027;-82
2021/04/05 01:27:36;;;;;;;26.90;6.93;;;;;;;17.19;34.42;101991.13;4973506;28;20027;-84
2021/04/05 01:30:07;;;;;;;18.67;5.68;;;;;;;16.93;34.08;101999.47;4973544;28;20125;-86
2021/04/05 01:32:33;;;;;;;13.63;5.55;;;;;;;16.92;34.21;101995.06;4974707;28;20031;-86
2021/04/05 01:34:58;;;;;;;18.77;6.72;;;;;;;17.05;33.64;101999.59;4973549;28;20043;-84
2021/04/05 01:37:24;;;;;;;22.27;5.88;;;;;;;17.01;33.77;101995.06;4974571;28;20026;-83
2021/04/05 01:39:50;;;;;;;14.07;6.45;;;;;;;16.83;34.15;101994.25;4974583;28;20050;-90
2021/04/05 01:42:15;;;;;;;20.45;6.90;;;;;;;16.83;34.35;101999.75;4974734;28;20042;-84
2021/04/05 01:44:41;;;;;;;20.25;7.97;;;;;;;16.90;34.14;101997.34;4973440;28;20034;-89
2021/04/05 01:47:10;;;;;;;24.38;8.38;;;;;;;16.58;34.54;102012.38;4974535;28;20075;-86
2021/04/05 01:49:39;;;;;;;28.17;7.95;;;;;;;16.91;34.02;102004.47;4974574;28;20038;-84
2021/04/05 01:52:11;;;;;;;22.00;8.57;;;;;;;16.89;34.36;102004.00;4974509;28;20030;-87
2021/04/05 01:54:36;;;;;;;22.20;7.47;;;;;;;16.91;34.24;102004.47;4974521;28;20269;-84
2021/04/05 01:57:03;;;;;;;20.35;6.18;;;;;;;16.84;34.18;102002.19;4976940;28;20027;-82
2021/04/05 01:59:28;;;;;;;28.17;6.85;;;;;;;16.87;33.99;102003.50;4978503;28;20110;-86
2021/04/05 02:01:54;;;;;;;20.63;6.38;;;;;;;16.61;34.38;102001.50;4977350;28;20093;-86
2021/04/05 02:04:20;;;;;;;18.77;6.90;;;;;;;16.87;33.96;102000.75;4977232;28;20026;-84
2021/04/05 02:06:46;;;;;;;23.65;5.93;;;;;;;16.51;34.55;102003.78;4977180;28;20537;-83
2021/04/05 02:09:13;;;;;;;21.15;9.43;;;;;;;16.34;34.69;102001.81;4978020;28;20027;-82
2021/04/05 02:11:39;;;;;;;19.35;7.03;;;;;;;16.67;34.09;102002.16;4978119;28;20027;-83
2021/04/05 02:14:07;;;;;;;22.27;6.95;;;;;;;16.86;33.46;102012.94;4976843;28;20041;-83
2021/04/05 02:16:33;;;;;;;16.80;6.65;;;;;;;16.76;33.72;102005.78;4978151;28;20109;-82
2021/04/05 02:18:59;;;;;;;19.00;6.47;;;;;;;16.31;34.12;101999.69;4977114;28;20062;-89
2021/04/05 02:21:28;;;;;;;18.15;7.53;;;;;;;16.64;34.07;101998.13;4993208;28;20544;-88
2021/04/05 02:23:55;;;;;;;25.55;7.15;;;;;;;16.68;33.54;101994.69;4976739;28;20027;-83
2021/04/05 02:26:24;;;;;;;18.30;6.32;;;;;;;16.62;33.33;102005.06;4976376;28;20031;-89
2021/04/05 02:28:53;;;;;;;16.38;6.30;;;;;;;16.79;33.36;102012.59;4977368;28;20110;-83
2021/04/05 02:31:23;;;;;;;18.23;6.17;;;;;;;16.47;33.43;102019.34;4978235;28;20147;-89
2021/04/05 02:33:53;;;;;;;18.63;7.07;;;;;;;16.57;33.63;102021.81;4977745;28;20038;-86
2021/04/05 02:36:22;;;;;;;20.30;7.43;;;;;;;16.51;33.34;102014.81;4977759;28;20031;-82
2021/04/05 02:38:59;;;;;;;20.60;5.97;;;;;;;16.43;33.44;102005.38;4977628;28;20034;-87
2021/04/05 02:41:28;;;;;;;19.80;6.63;;;;;;;16.43;33.38;102001.81;4976476;28;20393;-83
2021/04/05 02:43:54;;;;;;;19.23;6.90;;;;;;;16.50;33.29;102014.00;4977390;28;20521;-82
2021/04/05 02:46:36;;;;;;;18.02;6.47;;;;;;;16.62;32.92;102005.06;4977780;28;20055;-86
2021/04/05 02:49:05;;;;;;;14.30;6.47;;;;;;;16.90;32.57;102011.13;4976639;28;20058;-82
2021/04/05 02:51:32;;;;;;;15.32;6.32;;;;;;;16.73;32.89;101989.88;4992595;28;20035;-86
2021/04/05 02:54:03;;;;;;;16.85;5.13;;;;;;;16.78;32.84;101989.72;4977446;28;20037;-90
2021/04/05 02:56:30;;;;;;;16.58;5.97;;;;;;;16.68;32.91;101987.22;4976350;28;20034;-85
2021/04/05 02:58:57;;;;;;;20.38;6.65;;;;;;;16.92;32.65;101995.06;4977435;28;20030;-83
2021/04/05 03:01:24;;;;;;;16.63;6.32;;;;;;;16.86;32.77;101999.13;4976057;28;20023;-88
2021/04/05 03:03:50;;;;;;;17.63;7.53;;;;;;;16.90;32.98;102000.09;4976310;28;20031;-86
2021/04/05 03:06:19;;;;;;;12.35;5.45;;;;;;;16.91;32.69;101996.19;4977196;28;20504;-85
2021/04/05 03:08:46;;;;;;;18.73;5.90;;;;;;;17.03;32.45;101999.13;4976179;28;20113;-87
2021/04/05 03:11:13;;;;;;;15.75;6.38;;;;;;;16.98;32.41;102006.75;4976092;28;20271;-84
2021/04/05 03:13:40;;;;;;;18.35;6.15;;;;;;;16.97;32.54;102005.94;4977217;28;20031;-84
2021/04/05 03:16:10;;;;;;;18.13;6.45;;;;;;;17.03;32.28;102001.88;4992323;28;20070;-86
2021/04/05 03:18:36;;;;;;;12.95;5.70;;;;;;;17.11;31.88;102000.25;4975873;28;20026;-87
2021/04/05 03:21:06;;;;;;;14.80;6.28;;;;;;;17.26;31.88;102010.78;4976997;28;20045;-85
2021/04/05 03:23:33;;;;;;;19.10;5.82;;;;;;;17.18;31.77;102017.94;4975844;28;20031;-87
2021/04/05 03:25:58;;;;;;;16.55;6.13;;;;;;;17.10;31.79;102016.00;4976723;28;20492;-84
2021/04/05 03:28:24;;;;;;;14.45;5.78;;;;;;;17.23;31.27;102019.75;4975784;28;20027;-84
2021/04/05 03:30:55;;;;;;;16.15;6.97;;;;;;;17.36;31.23;102024.25;4975578;28;20031;-86
2021/04/05 03:33:42;;;;;;;12.23;5.28;;;;;;;17.17;31.57;102027.38;4976760;28;20522;-88
2021/04/05 03:36:28;;;;;;;19.67;6.80;;;;;;;16.45;32.15;102043.69;4975505;28;20046;-87
2021/04/05 03:38:56;;;;;;;13.98;5.82;;;;;;;16.94;31.71;102048.00;4975809;28;20393;-84
2021/04/05 03:41:33;;;;;;;17.20;5.72;;;;;;;17.02;31.85;102049.16;4976913;28;20031;-88
2021/04/05 03:44:48;;;;;;;20.98;8.15;;;;;;;16.39;32.87;102054.03;4976740;28;20027;-88
2021/04/05 03:47:58;;;;;;;16.38;5.50;;;;;;;16.41;32.55;102049.03;4923676;28;20040;-87
2021/04/05 03:50:35;;;;;;;14.75;5.10;;;;;;;16.60;32.36;102051.50;4991908;28;20042;-89
2021/04/05 03:53:13;;;;;;;14.25;5.15;;;;;;;16.48;32.67;102054.91;4976631;28;20027;-84
2021/04/05 03:55:40;;;;;;;18.27;6.13;;;;;;;16.65;32.56;102060.44;4975293;28;20062;-82
2021/04/05 03:58:09;;;;;;;18.83;6.57;;;;;;;16.61;32.47;102058.66;4976537;28;20521;-84
2021/04/05 04:00:36;;;;;;;20.38;6.75;;;;;;;16.49;32.43;102058.47;4975185;28;20023;-87
2021/04/05 04:03:06;;;;;;;15.10;5.60;;;;;;;16.10;32.97;102068.41;4976251;28;20034;-86
2021/04/05 04:10:37;;;;;;;13.68;4.22;;;;;;;16.08;33.03;102057.69;4976526;28;20035;-83
2021/04/05 04:13:11;;;;;;;14.75;3.97;;;;;;;15.41;33.65;102046.75;4991065;28;20023;-84
2021/04/05 04:15:37;;;;;;;16.15;4.75;;;;;;;15.93;33.22;102041.56;4974880;28;20031;-87
2021/04/05 04:18:04;;;;;;;16.25;4.00;;;;;;;16.01;33.09;102051.00;4975600;28;20031;-89
2021/04/05 04:20:31;;;;;;;8.30;3.17;;;;;;;15.78;33.12;102053.81;4974799;28;20054;-90
2021/04/05 04:22:57;;;;;;;13.85;4.47;;;;;;;15.66;33.41;102039.81;4974576;28;20050;-84
2021/04/05 04:25:24;;;;;;;11.93;4.93;;;;;;;15.25;34.05;102043.56;4976203;28;20026;-86
2021/04/05 04:27:49;;;;;;;12.85;4.78;;;;;;;15.70;33.14;102049.06;4975631;28;20062;-90
2021/04/05 04:30:32;;;;;;;14.95;4.97;;;;;;;15.91;32.72;102052.09;4974484;28;20039;-84
2021/04/05 04:33:16;;;;;;;15.07;4.65;;;;;;;16.02;32.75;102049.84;4975613;28;20481;-83
2021/04/05 04:35:46;;;;;;;13.30;3.75;;;;;;;15.90;32.63;102055.19;4974612;28;20045;-85
2021/04/05 04:38:12;;;;;;;11.10;3.95;;;;;;;15.50;33.16;102053.16;4974368;28;20039;-86
2021/04/05 04:40:38;;;;;;;13.02;3.83;;;;;;;15.84;32.75;102065.50;4974055;28;20030;-87
2021/04/05 04:43:06;;;;;;;16.90;4.07;;;;;;;16.00;32.40;102052.94;4974256;28;20018;-83
2021/04/05 04:45:32;;;;;;;10.20;3.72;;;;;;;15.33;33.74;102053.00;4974276;28;20054;-84
2021/04/05 04:47:58;;;;;;;13.88;3.35;;;;;;;15.10;34.13;102059.63;4974362;28;20456;-87
2021/04/05 04:50:25;;;;;;;9.32;3.08;;;;;;;14.73;34.96;102078.06;4974081;28;20031;-88
2021/04/05 04:52:52;;;;;;;9.43;2.65;;;;;;;14.28;36.37;102083.41;4974117;28;20042;-85
2021/04/05 04:55:20;;;;;;;12.02;4.50;;;;;;;13.63;37.92;102088.19;4973815;28;20061;-88
2021/04/05 04:57:45;;;;;;;8.70;2.75;;;;;;;13.81;37.62;102065.31;4972481;28;20042;-90
2021/04/05 05:00:12;;;;;;;8.85;2.80;;;;;;;14.35;36.42;102071.97;4973025;28;20026;-83
2021/04/05 05:02:42;;;;;;;9.15;2.35;;;;;;;13.79;37.18;102076.63;4973799;28;20027;-90
2021/04/05 05:05:15;;;;;;;9.15;2.63;;;;;;;13.43;38.19;102086.59;4975956;28;20042;-91
2021/04/05 05:07:41;;;;;;;14.75;3.30;;;;;;;13.60;38.07;102078.59;4976430;28;20401;-92
2021/04/05 05:10:10;;;;;;;8.40;2.00;;;;;;;13.52;38.38;102076.53;4976996;28;20020;-84
2021/04/05 05:12:41;;;;;;;6.50;1.80;;;;;;;13.93;38.02;102073.91;4973618;28;20022;-85
2021/04/05 05:15:10;;;;;;;11.60;2.30;;;;;;;14.36;36.76;102088.19;4974505;28;20037;-84
2021/04/05 05:17:41;;;;;;;9.18;4.03;;;;;;;14.20;37.21;102092.34;4970069;28;20050;-86
2021/04/05 05:20:08;;;;;;;13.52;6.18;;;;;;;14.38;36.90;102093.38;4969997;28;20026;-83
2021/04/05 05:22:39;;;;;;;12.73;4.57;;;;;;;14.06;37.13;102094.28;4973725;28;20023;-84
2021/04/05 05:25:05;;;;;;;8.43;2.72;;;;;;;14.28;36.64;102094.41;4973825;28;20027;-83
2021/04/05 05:27:36;;;;;;;7.15;2.47;;;;;;;13.65;37.42;102105.16;4974683;28;20034;-86
2021/04/05 05:30:04;;;;;;;;;;;;;;;14.21;36.46;102116.00;4973856;28;20031;-86
2021/04/05 05:32:29;;;;;;;11.13;3.95;;;;;;;14.28;36.16;102116.41;4974139;28;20435;-89
2021/04/05 05:34:55;;;;;;;8.80;2.25;;;;;;;14.27;36.18;102114.75;4974140;28;20118;-90
2021/04/05 05:37:21;;;;;;;11.40;2.60;;;;;;;14.50;35.62;102112.94;4974469;28;20030;-89
2021/04/05 05:39:46;;;;;;;11.88;2.50;;;;;;;14.36;35.62;102112.94;4974410;28;20034;-85
2021/04/05 05:42:25;;;;;;;10.68;3.38;;;;;;;14.71;35.14;102100.41;4975071;28;20059;-89
2021/04/05 05:45:05;;;;;;;11.40;3.38;;;;;;;14.11;35.84;102099.66;4974475;28;20046;-88
2021/04/05 05:47:39;;;;;;;12.80;2.97;;;;;;;14.21;35.67;102116.00;4961233;28;20043;-87
2021/04/05 05:50:20;;;;;;;12.82;3.70;;;;;;;13.87;36.38;102133.63;4962636;28;20057;-88
2021/04/05 05:53:23;;;;;;;11.35;2.80;;;;;;;13.86;36.57;102134.75;4973880;28;20027;-89
2021/04/05 05:56:06;;;;;;;11.65;2.63;;;;;;;13.98;36.65;102166.41;4974439;28;20033;-90
2021/04/05 05:59:00;;;;;;;17.20;2.72;;;;;;;14.09;36.20;102160.44;4973730;28;20082;-86
2021/04/05 06:01:35;;;;;;;10.23;2.72;;;;;;;13.61;38.05;102179.13;4974170;28;20058;-92
2021/04/05 06:04:39;;;;;;;4.10;1.38;;;;;;;12.80;40.08;102210.38;4973880;28;20097;-90
2021/04/05 06:07:20;;;;;;;3.65;1.65;;;;;;;13.11;38.90;102208.06;4974213;28;20034;-88
2021/04/05 06:10:04;;;;;;;5.10;1.30;;;;;;;12.95;38.53;102207.44;4975052;28;20094;-88
2021/04/05 06:12:48;;;;;;;3.97;1.75;;;;;;;13.10;38.36;102215.50;4974389;28;20181;-87
2021/04/05 06:15:28;;;;;;;4.28;1.60;;;;;;;12.82;38.77;102211.72;4974153;28;20508;-92
2021/04/05 06:18:04;;;;;;;4.88;1.90;;;;;;;12.90;38.69;102213.81;4975875;28;20038;-87
2021/04/05 06:20:38;;;;;;;4.75;1.77;;;;;;;12.64;39.04;102216.03;4977287;28;20046;-89
2021/04/05 06:23:28;;;;;;;6.38;2.15;;;;;;;12.60;39.30;102214.16;4973759;28;20105;-91
2021/04/05 06:26:14;;;;;;;3.83;1.63;;;;;;;12.96;38.25;102209.09;4973547;28;20110;-92
2021/04/05 06:29:01;;;;;;;4.10;2.58;;;;;;;13.32;37.58;102217.72;4974336;28;20606;-90
2021/04/05 06:31:26;;;;;;;6.47;2.40;;;;;;;13.33;37.71;102217.41;4974124;28;20026;-95
2021/04/05 06:33:54;;;;;;;5.93;1.98;;;;;;;13.28;37.68;102202.94;4973843;28;20033;-87
2021/04/05 06:36:42;;;;;;;6.97;3.08;;;;;;;13.46;37.37;102217.78;4977663;28;20386;-90
2021/04/05 06:39:12;;;;;;;6.97;1.75;;;;;;;12.89;38.33;102214.91;4973443;28;20062;-89
2021/04/05 06:41:37;;;;;;;8.07;4.05;;;;;;;13.37;37.28;102219.53;4975578;28;20543;-88
2021/04/05 06:44:34;;;;;;;6.70;2.15;;;;;;;13.10;37.88;102218.25;4975940;28;20034;-84
2021/04/05 06:47:08;;;;;;;6.18;2.20;;;;;;;13.23;37.39;102227.72;4975679;28;20050;-85
2021/04/05 06:49:40;;;;;;;5.35;2.20;;;;;;;13.22;37.67;102229.63;4975857;28;20023;-85
2021/04/05 06:52:29;;;;;;;11.10;5.88;;;;;;;13.40;37.66;102236.25;4975822;28;20485;-85
2021/04/05 06:55:45;;;;;;;6.18;2.10;;;;;;;13.79;36.63;102244.19;4966313;28;20039;-84
2021/04/05 06:58:26;;;;;;;9.35;2.03;;;;;;;13.74;36.92;102235.22;4939203;29;20171;-86
2021/04/05 07:01:13;;;;;;;8.45;2.13;;;;;;;13.57;36.99;102253.03;4976882;28;20049;-85
2021/04/05 07:04:29;;;;;;;6.40;2.80;;;;;;;13.59;36.08;102249.97;4976728;28;20425;-85
2021/04/05 07:07:15;;;;;;;4.35;1.92;;;;;;;13.70;36.22;102270.72;4964377;28;20497;-85
2021/04/05 07:09:51;;;;;;;7.53;2.58;;;;;;;13.64;36.14;102265.59;4975852;28;20027;-84
2021/04/05 07:12:33;;;;;;;8.75;2.20;;;;;;;13.59;35.87;102277.44;4975554;28;20073;-85
2021/04/05 07:15:02;;;;;;;19.27;4.07;;;;;;;13.97;35.40;102291.19;4975498;28;20030;-84
2021/04/05 07:17:27;;;;;;;7.90;2.70;;;;;;;13.56;35.81;102298.09;4975652;28;20054;-84
2021/04/05 07:19:59;;;;;;;5.90;1.88;;;;;;;13.67;35.82;102307.00;4976740;28;20057;-85
2021/04/05 07:23:02;;;;;;;6.65;2.95;;;;;;;13.84;35.13;102304.56;4975274;28;20473;-84
2021/04/05 07:25:49;;;;;;;6.68;2.13;;;;;;;14.12;34.94;102302.75;4975625;28;20027;-82
2021/04/05 07:28:36;;;;;;;9.07;3.25;;;;;;;14.13;34.81;102311.81;4975576;28;20058;-85
2021/04/05 07:31:08;;;;;;;8.93;2.17;;;;;;;14.05;34.84;102323.50;4976606;28;20051;-85
2021/04/05 07:33:41;;;;;;;9.60;2.45;;;;;;;13.82;35.69;102323.28;4975499;28;20035;-86
2021/04/05 07:36:38;;;;;;;6.63;2.33;;;;;;;14.02;34.51;102340.59;4976700;28;20027;-85
2021/04/05 07:39:22;;;;;;;8.13;2.80;;;;;;;13.99;34.40;102342.00;4975427;28;20030;-87
2021/04/05 07:42:08;;;;;;;9.57;2.10;;;;;;;13.32;34.34;102342.06;4964350;28;20043;-83
2021/04/05 07:45:02;;;;;;;7.40;2.03;;;;;;;12.89;33.29;102359.50;4968189;28;20039;-83
2021/04/05 07:47:46;;;;;;;9.70;2.53;;;;;;;13.84;32.40;102365.03;4974140;28;20047;-88
2021/04/05 07:50:24;;;;;;;7.57;2.00;;;;;;;13.40;32.52;102370.78;4967524;28;20069;-85
2021/04/05 07:53:11;;;;;;;3.00;1.42;;;;;;;12.67;32.79;102379.19;4972999;28;20418;-80
2021/04/05 07:55:39;;;;;;;2.50;0.98;;;;;;;12.59;32.19;102374.31;4965191;28;20031;-85
2021/04/05 07:58:14;;;;;;;7.53;2.20;;;;;;;13.00;31.69;102385.75;4959999;28;20034;-89
2021/04/05 08:01:17;;;;;;;4.07;1.67;;;;;;;13.44;30.84;102393.78;4973846;28;20035;-87
2021/04/05 08:03:52;;;;;;;5.50;1.50;;;;;;;13.41;31.00;102388.09;4968194;28;20058;-88
2021/04/05 08:06:23;;;;;;;6.38;1.67;;;;;;;13.66;30.57;102385.03;4970282;28;20035;-88
2021/04/05 08:08:55;;;;;;;4.22;1.60;;;;;;;13.59;31.00;102390.88;4974779;28;20031;-85
2021/04/05 08:11:41;;;;;;;7.55;2.55;;;;;;;13.49;31.10;102404.72;4974300;28;20022;-86
2021/04/05 08:14:16;;;;;;;5.13;1.90;;;;;;;13.14;31.57;102414.13;4962849;28;20535;-87
2021/04/05 08:17:02;;;;;;;8.60;2.38;;;;;;;13.66;30.91;102407.00;4965875;28;20481;-86
2021/04/05 08:20:02;;;;;;;12.25;2.13;;;;;;;14.24;30.40;102419.72;4967557;28;20023;-86
2021/04/05 08:22:43;;;;;;;5.75;1.40;;;;;;;14.46;30.11;102428.22;4961825;28;20038;-81
2021/04/05 08:28:48;;;;;;;4.53;1.70;;;;;;;14.10;29.68;102425.13;4965919;28;20508;-82
2021/04/05 08:31:22;;;;;;;6.47;1.67;;;;;;;13.80;29.57;102427.16;4958062;28;20043;-80
2021/04/05 08:34:22;;;;;;;5.13;1.58;;;;;;;13.78;29.50;102426.63;4957703;28;20513;-82
2021/04/05 08:36:50;;;;;;;8.77;1.90;;;;;;;13.68;29.70;102447.91;4958422;28;20037;-82
2021/04/05 08:39:30;;;;;;;9.32;3.17;;;;;;;13.72;29.88;102447.03;4956697;28;20130;-83
2021/04/05 08:42:02;;;;;;;;;;;;;;;13.61;29.67;102453.78;4958232;28;20976;-81
2021/04/05 08:44:45;;;;;;;7.63;2.33;;;;;;;13.54;29.75;102448.63;4958354;28;20036;-78
2021/04/05 08:47:19;;;;;;;8.18;2.60;;;;;;;14.00;29.30;102452.75;4958551;28;20043;-76
2021/04/05 08:49:47;;;;;;;3.25;1.60;;;;;;;13.67;29.06;102458.06;4966245;28;20027;-80
2021/04/05 08:52:13;;;;;;;6.50;1.58;;;;;;;14.04;28.98;102459.28;4967109;28;20508;-82
2021/04/05 08:54:41;;;;;;;4.82;1.65;;;;;;;13.29;29.57;102462.59;4966683;28;20534;-84
2021/04/05 08:57:18;;;;;;;7.75;1.65;;;;;;;13.69;28.74;102452.31;4967783;28;20158;-84
2021/04/05 09:00:10;;;;;;;7.78;1.80;;;;;;;14.02;28.57;102445.03;4964658;28;20126;-83
2021/04/05 09:02:38;;;;;;;9.40;2.38;;;;;;;14.00;29.22;102444.50;4964346;28;20755;-81
2021/04/05 09:05:24;;;;;;;6.18;2.20;;;;;;;14.16;28.35;102454.19;4964712;28;20022;-78
2021/04/05 09:08:06;;;;;;;5.60;2.70;;;;;;;14.65;28.68;102462.00;4965222;28;20477;-75
2021/04/05 09:10:41;;;;;;;4.28;1.85;;;;;;;13.97;29.69;102462.38;4965061;28;20039;-77
2021/04/05 09:13:11;;;;;;;6.47;1.92;;;;;;;14.55;28.89;102472.38;4965064;28;20042;-78
2021/04/05 09:15:58;;;;;;;8.95;2.42;;;;;;;13.85;29.03;102465.56;4958759;28;20031;-77
2021/04/05 09:18:54;;;;;;;7.60;1.77;;;;;;;13.62;29.99;102463.66;4973115;28;20046;-77
2021/04/05 09:21:37;;;;;;;4.32;1.90;;;;;;;14.40;28.58;102468.69;4969969;28;20389;-79
2021/04/05 09:24:37;;;;;;;8.48;2.17;;;;;;;13.89;29.99;102474.84;4972264;28;20508;-80
2021/04/05 09:27:27;;;;;;;5.80;1.67;;;;;;;14.35;29.62;102478.94;4971943;28;20038;-77
2021/04/05 09:30:11;;;;;;;5.88;1.88;;;;;;;14.61;29.04;102487.69;4971884;28;20371;-75
2021/04/05 09:32:54;;;;;;;11.13;2.35;;;;;;;15.13;28.75;102492.09;4964824;28;20110;-76
2021/04/05 09:35:44;;;;;;;6.22;1.83;;;;;;;15.28;28.43;102502.03;4969631;28;20367;-80
2021/04/05 09:38:16;;;;;;;;;;;;;;;15.26;27.74;102501.47;4971671;28;20054;-78
2021/04/05 09:40:59;;;;;;;7.72;2.40;;;;;;;15.48;28.19;102503.56;4972000;28;19917;-79
2021/04/05 09:43:54;;;;;;;7.53;2.20;;;;;;;14.59;29.24;102503.69;4972806;28;20031;-81
2021/04/05 09:46:56;;;;;;;14.55;3.00;;;;;;;14.56;30.65;102505.06;4967199;28;20034;-85
2021/04/05 09:49:38;;;;;;;7.03;2.60;;;;;;;13.58;31.19;102517.50;4969479;28;20054;-87
2021/04/05 09:52:04;;;;;;;6.47;1.88;;;;;;;13.96;30.92;102537.69;4972855;28;20027;-85
2021/04/05 09:54:36;;;;;;;6.95;2.17;;;;;;;14.40;31.42;102540.19;4971716;28;20027;-84
2021/04/05 09:57:15;;;;;;;13.85;2.58;;;;;;;14.19;31.75;102522.31;4971531;28;20027;-84
2021/04/05 09:59:46;;;;;;;6.97;2.10;;;;;;;14.42;31.19;102524.22;4971395;28;20039;-80
2021/04/05 10:02:15;;;;;;;9.73;2.63;;;;;;;15.17;30.47;102526.13;4971601;28;20031;-72
2021/04/05 10:04:45;;;;;;;14.80;3.47;;;;;;;15.24;30.56;102517.50;4963732;28;20031;-76
2021/04/05 10:07:12;;;;;;;5.35;1.50;;;;;;;15.21;29.44;102523.63;4961857;28;20482;-86
2021/04/05 10:09:40;;;;;;;7.63;2.60;;;;;;;15.08;28.14;102522.44;4961752;28;20027;-79
2021/04/05 10:12:08;;;;;;;5.15;1.70;;;;;;;14.66;26.94;102529.72;4969004;28;20031;-81
2021/04/05 10:14:40;;;;;;;7.35;1.75;;;;;;;14.47;26.71;102528.88;4969550;28;20436;-85
2021/04/05 10:17:07;;;;;;;10.25;3.05;;;;;;;14.65;26.52;102539.03;4971979;28;20085;-83
2021/04/05 10:19:40;;;;;;;6.68;1.98;;;;;;;14.63;26.74;102524.78;4974253;28;20027;-81
2021/04/05 10:22:14;;;;;;;7.70;2.47;;;;;;;15.03;26.37;102530.78;4973211;28;20026;-80
2021/04/05 10:24:45;;;;;;;4.25;1.38;;;;;;;15.09;26.99;102531.53;4973896;28;20023;-79
2021/04/05 10:27:17;;;;;;;7.78;2.30;;;;;;;14.99;26.75;102521.50;4973466;28;20039;-78
2021/04/05 10:29:47;;;;;;;8.10;2.25;;;;;;;15.25;27.40;102530.16;4971222;28;20117;-80
2021/04/05 10:32:17;;;;;;;8.13;2.20;;;;;;;15.54;26.34;102522.47;4976495;28;20078;-88
2021/04/05 10:34:46;;;;;;;10.15;2.47;;;;;;;15.80;26.33;102538.56;4973340;28;20450;-87
2021/04/05 10:37:17;;;;;;;12.55;3.00;;;;;;;15.26;25.48;102518.84;4974206;28;20039;-84
2021/04/05 10:39:48;;;;;;;9.43;2.63;;;;;;;15.22;25.85;102514.25;4974701;28;20085;-88
2021/04/05 10:42:23;;;;;;;10.15;2.15;;;;;;;15.37;26.19;102511.22;4968142;28;20739;-82
2021/04/05 10:44:52;;;;;;;10.65;2.67;;;;;;;15.48;25.66;102528.38;4965140;28;20486;-89
2021/04/05 10:47:26;;;;;;;7.05;1.80;;;;;;;15.27;25.54;102525.19;4962565;28;20043;-91
2021/04/05 10:49:54;;;;;;;13.98;2.50;;;;;;;14.94;25.57;102519.63;4970391;28;20050;-86
2021/04/05 10:52:27;;;;;;;8.68;2.30;;;;;;;15.44;25.40;102535.63;4975796;28;20034;-85
2021/04/05 10:54:55;;;;;;;8.30;2.40;;;;;;;15.81;25.81;102535.50;4963580;28;20121;-82
2021/04/05 10:57:35;;;;;;;6.35;1.77;;;;;;;15.38;24.58;102534.06;4971786;28;20092;-82
2021/04/05 11:00:14;;;;;;;8.55;2.15;;;;;;;15.87;25.24;102552.78;4968778;28;20027;-84
2021/04/05 11:02:46;;;;;;;13.77;5.68;;;;;;;15.93;24.26;102557.03;4968292;28;20035;-84
2021/04/05 11:05:17;;;;;;;15.35;5.25;;;;;;;15.57;23.69;102548.63;4971169;28;20041;-87
2021/04/05 11:07:47;;;;;;;6.30;1.98;;;;;;;15.88;23.19;102554.41;4966618;28;20034;-82
2021/04/05 11:10:23;;;;;;;5.30;1.70;;;;;;;16.31;23.97;102543.88;4968378;28;20434;-80
2021/04/05 11:12:57;;;;;;;5.90;1.80;;;;;;;16.15;23.54;102541.75;4969516;28;20446;-82
2021/04/05 11:15:25;;;;;;;7.60;1.65;;;;;;;16.21;23.46;102540.50;4967854;28;20101;-86
2021/04/05 11:17:56;;;;;;;4.20;1.40;;;;;;;15.92;24.55;102554.59;4964984;28;20035;-80
2021/04/05 11:20:32;;;;;;;6.80;1.85;;;;;;;16.52;23.76;102546.19;4965009;28;20034;-79
2021/04/05 11:23:10;;;;;;;4.70;1.92;;;;;;;16.36;22.59;102546.53;4962383;28;20034;-79
2021/04/05 11:25:40;;;;;;;5.28;1.38;;;;;;;15.97;21.63;102546.25;4969806;28;20114;-80
2021/04/05 11:28:20;;;;;;;7.38;1.80;;;;;;;16.40;22.70;102562.44;4971663;28;20034;-81
2021/04/05 11:30:48;;;;;;;4.45;1.52;;;;;;;16.23;22.04;102549.28;4965801;28;20082;-82
2021/04/05 11:33:15;;;;;;;3.00;1.10;;;;;;;16.31;22.32;102551.31;4964053;28;20050;-81
2021/04/05 11:35:43;;;;;;;3.15;1.30;;;;;;;15.89;21.71;102561.56;4966839;28;20038;-83
2021/04/05 11:38:17;;;;;;;6.40;1.50;;;;;;;15.59;22.21;102559.31;4958875;28;20061;-81
2021/04/05 11:40:47;;;;;;;3.78;1.30;;;;;;;15.80;22.13;102541.34;4958888;28;20038;-80
2021/04/05 11:43:26;;;;;;;4.28;1.17;;;;;;;16.30;22.62;102549.69;4957428;28;20031;-82
2021/04/05 11:45:54;;;;;;;5.70;2.33;;;;;;;16.45;21.77;102551.31;4959598;28;20536;-83
2021/04/05 11:48:22;;;;;;;2.50;0.98;;;;;;;16.33;21.10;102549.09;4965847;28;20027;-91
2021/04/05 11:50:49;;;;;;;4.55;1.17;;;;;;;16.31;20.83;102548.56;4965405;28;20038;-82
2021/04/05 11:53:42;;;;;;;2.72;1.27;;;;;;;16.56;21.92;102542.53;4965856;28;20026;-78
2021/04/05 11:56:19;;;;;;;5.38;1.23;;;;;;;16.44;21.41;102553.25;4965926;28;20042;-80
2021/04/05 11:58:56;;;;;;;3.83;1.25;;;;;;;16.43;21.54;102548.06;4966489;28;20081;-77
2021/04/05 12:01:24;;;;;;;2.95;0.90;;;;;;;16.65;21.75;102540.66;4965844;28;20051;-77